Time;durP1;ratioP1;P1;durP2;ratioP2;P2;SDS_P1;SDS_P2;PMS_P1;PMS_P2;Temp;Humidity;BMP_temperature;BMP_pressure;BME280_temperature;BME280_humidity;BME280_pressure;Samples;Min_cycle;Max_cycle;Signal;HPM_P1;HPM_P2
2021/03/07 19:48:53;;;;;;;2.40;1.63;;;19.70;70.80;;;;;;5116695;27;20684;-66
2021/03/07 19:51:21;;;;;;;1.40;1.30;;;18.00;58.40;;;;;;5121899;28;20253;-66
2021/03/07 19:53:49;;;;;;;1.20;1.10;;;15.90;57.90;;;;;;5121113;28;20202;-66
2021/03/07 19:56:16;;;;;;;1.47;1.20;;;13.90;58.20;;;;;;5116005;28;20282;-67
2021/03/07 19:58:50;;;;;;;1.10;1.00;;;12.20;58.80;;;;;;5121694;27;20698;-66
2021/03/07 20:01:30;;;;;;;1.17;1.03;;;10.50;59.40;;;;;;5101345;28;20240;-66
2021/03/07 20:04:08;;;;;;;1.20;1.10;;;9.20;61.40;;;;;;5117293;28;20786;-66
2021/03/07 20:06:51;;;;;;;1.23;1.13;;;8.00;62.50;;;;;;4953918;28;78806;-66
2021/03/07 20:09:18;;;;;;;1.23;0.90;;;7.60;64.30;;;;;;5036673;28;20194;-66
2021/03/07 20:11:45;;;;;;;1.20;0.83;;;6.30;64.80;;;;;;5040640;28;20195;-66
2021/03/07 20:14:12;;;;;;;0.90;0.90;;;5.60;65.80;;;;;;5039083;28;20224;-66
2021/03/07 20:16:40;;;;;;;0.97;0.80;;;5.10;66.80;;;;;;5043946;28;20212;-67
2021/03/07 20:19:09;;;;;;;1.20;0.90;;;4.70;67.80;;;;;;5040457;28;21012;-66
2021/03/07 20:21:36;;;;;;;1.13;1.00;;;4.30;68.90;;;;;;5035043;28;20193;-67
2021/03/07 20:24:06;;;;;;;1.47;1.20;;;4.00;69.90;;;;;;5037957;28;20573;-67
2021/03/07 20:26:33;;;;;;;2.03;1.17;;;3.60;70.80;;;;;;5071225;28;20712;-67
2021/03/07 20:29:00;;;;;;;1.10;1.00;;;3.40;72.00;;;;;;5040990;28;20224;-66
2021/03/07 20:31:27;;;;;;;1.80;1.70;;;3.20;73.00;;;;;;5037572;28;20202;-67
2021/03/07 20:33:55;;;;;;;3.03;1.30;;;3.10;74.30;;;;;;5041437;28;20198;-67
2021/03/07 20:36:25;;;;;;;1.50;0.90;;;2.90;75.60;;;;;;5043953;28;20198;-67
2021/03/07 20:39:13;;;;;;;1.70;1.00;;;2.70;76.70;;;;;;5040966;28;20539;-67
2021/03/07 20:41:41;;;;;;;1.10;1.00;;;2.60;78.20;;;;;;5027315;28;20467;-67
2021/03/07 20:44:08;;;;;;;1.67;1.00;;;2.50;79.50;;;;;;5037091;28;20195;-67
2021/03/07 20:46:35;;;;;;;1.43;0.97;;;2.40;80.80;;;;;;5037836;28;20280;-67
2021/03/07 20:49:02;;;;;;;2.23;1.10;;;2.30;82.00;;;;;;5036794;28;20205;-68
2021/03/07 20:51:30;;;;;;;2.00;1.00;;;2.20;83.10;;;;;;5041673;28;20252;-67
2021/03/07 20:54:02;;;;;;;1.67;0.87;;;2.10;84.30;;;;;;5041382;28;20619;-67
2021/03/07 20:56:34;;;;;;;1.43;0.90;;;2.10;85.50;;;;;;5041684;28;20209;-67
2021/03/07 20:59:00;;;;;;;1.03;0.93;;;2.00;86.60;;;;;;5030538;28;20241;-67
2021/03/07 21:01:27;;;;;;;1.73;1.17;;;2.00;87.90;;;;;;5026777;28;20201;-67
2021/03/07 21:03:53;;;;;;;0.80;0.80;;;1.90;89.10;;;;;;5042660;28;20202;-67
2021/03/07 21:06:20;;;;;;;3.27;1.10;;;1.80;90.30;;;;;;5028528;28;20202;-67
2021/03/07 21:08:51;;;;;;;1.20;1.07;;;1.80;90.50;;;;;;5056318;28;20222;-67
2021/03/07 21:11:18;;;;;;;4.07;1.60;;;1.80;90.90;;;;;;5027802;28;20222;-67
2021/03/07 21:13:44;;;;;;;2.27;1.33;;;1.70;91.40;;;;;;5028501;28;20194;-67
2021/03/07 21:16:10;;;;;;;1.73;1.00;;;1.80;91.80;;;;;;5030456;28;20198;-67
2021/03/07 21:18:37;;;;;;;1.97;1.10;;;1.70;92.20;;;;;;5021079;28;20199;-68
2021/03/07 21:21:04;;;;;;;1.80;1.27;;;1.70;92.50;;;;;;5022905;28;20190;-67
2021/03/07 21:23:31;;;;;;;3.00;1.00;;;1.60;92.80;;;;;;5020328;28;20285;-68
2021/03/07 21:25:58;;;;;;;2.30;1.10;;;1.60;93.10;;;;;;5022324;28;20206;-68
2021/03/07 21:28:24;;;;;;;1.90;1.30;;;1.50;93.50;;;;;;5021439;28;20238;-67
2021/03/07 21:30:51;;;;;;;2.93;1.33;;;1.50;93.80;;;;;;5023510;28;20256;-68
2021/03/07 21:33:18;;;;;;;4.43;1.93;;;1.50;94.00;;;;;;5023288;28;20202;-69
2021/03/07 21:35:44;;;;;;;2.80;1.50;;;1.40;94.70;;;;;;5026887;28;20200;-68
2021/03/07 21:38:11;;;;;;;4.13;1.60;;;1.40;94.90;;;;;;5022827;28;20349;-68
2021/03/07 21:40:37;;;;;;;1.57;1.10;;;1.30;95.10;;;;;;5034649;28;20698;-68
2021/03/07 21:43:05;;;;;;;1.47;1.13;;;1.30;95.30;;;;;;5025410;28;20720;-67
2021/03/07 21:45:32;;;;;;;1.83;1.30;;;1.30;95.50;;;;;;5021431;28;20195;-67
2021/03/07 21:47:58;;;;;;;1.17;0.90;;;1.30;95.60;;;;;;5023159;28;20234;-67
2021/03/07 21:50:25;;;;;;;1.83;1.13;;;1.30;95.80;;;;;;5058162;28;20756;-66
2021/03/07 21:52:51;;;;;;;2.27;1.50;;;1.30;95.90;;;;;;5023286;28;20198;-67
2021/03/07 21:55:18;;;;;;;2.57;1.53;;;1.30;96.10;;;;;;5026335;28;20198;-67
2021/03/07 21:57:44;;;;;;;3.40;1.47;;;1.30;96.20;;;;;;5024900;28;20297;-67
2021/03/07 22:00:13;;;;;;;1.77;1.10;;;1.20;96.40;;;;;;5025334;28;20253;-67
2021/03/07 22:02:39;;;;;;;2.17;1.30;;;1.20;96.50;;;;;;5022928;28;20202;-67
2021/03/07 22:05:07;;;;;;;1.43;1.07;;;1.20;96.70;;;;;;5050891;28;20204;-67
2021/03/07 22:07:34;;;;;;;1.73;1.23;;;1.20;96.80;;;;;;5023420;28;20316;-66
2021/03/07 22:10:01;;;;;;;2.40;1.20;;;1.30;97.30;;;;;;5020361;28;20221;-67
2021/03/07 22:12:45;;;;;;;2.20;1.27;;;1.20;97.10;;;;;;5023690;28;20210;-68
2021/03/07 22:15:14;;;;;;;3.33;1.70;;;1.20;97.20;;;;;;5022030;28;20285;-67
2021/03/07 22:17:41;;;;;;;3.90;1.40;;;1.20;97.30;;;;;;5021858;28;20198;-67
2021/03/07 22:20:09;;;;;;;2.53;1.30;;;1.20;97.60;;;;;;5024972;28;20289;-67
2021/03/07 22:22:35;;;;;;;4.00;1.40;;;1.20;97.70;;;;;;5006328;28;20921;-67
2021/03/07 22:25:02;;;;;;;2.47;1.30;;;1.20;97.70;;;;;;5019643;28;20238;-66
2021/03/07 22:27:29;;;;;;;1.67;1.20;;;1.10;97.80;;;;;;5024711;28;20218;-67
2021/03/07 22:29:55;;;;;;;1.57;1.10;;;1.10;97.90;;;;;;5021344;28;20199;-66
2021/03/07 22:32:23;;;;;;;2.07;1.13;;;1.10;98.00;;;;;;5021754;28;20450;-66
2021/03/07 22:34:49;;;;;;;1.80;1.27;;;1.10;98.10;;;;;;5023649;28;20209;-66
2021/03/07 22:37:16;;;;;;;2.63;1.20;;;1.10;98.10;;;;;;5005936;28;20209;-66
2021/03/07 22:39:43;;;;;;;2.20;1.30;;;1.20;98.20;;;;;;5021053;28;20230;-66
2021/03/07 22:42:09;;;;;;;1.43;1.20;;;1.20;98.30;;;;;;5022448;28;20251;-66
2021/03/07 22:44:36;;;;;;;1.60;1.00;;;1.20;98.30;;;;;;5024038;28;20201;-66
2021/03/07 22:47:03;;;;;;;3.77;1.60;;;1.20;98.30;;;;;;5023937;28;20299;-66
2021/03/07 22:49:30;;;;;;;1.57;1.00;;;1.30;98.40;;;;;;5040893;28;20229;-66
2021/03/07 22:51:57;;;;;;;1.23;0.97;;;1.30;98.40;;;;;;5026449;28;20194;-66
2021/03/07 22:54:24;;;;;;;2.90;1.47;;;1.30;98.40;;;;;;5027335;28;20194;-67
2021/03/07 22:56:50;;;;;;;3.43;1.30;;;1.40;98.40;;;;;;5026774;28;20294;-66
2021/03/07 22:59:17;;;;;;;2.83;1.10;;;1.40;98.40;;;;;;5046025;28;20283;-66
2021/03/07 23:01:43;;;;;;;3.27;1.40;;;1.40;98.40;;;;;;5030291;28;20284;-66
2021/03/07 23:04:10;;;;;;;2.73;1.47;;;1.40;98.40;;;;;;5024495;28;20277;-67
2021/03/07 23:06:37;;;;;;;1.93;1.30;;;1.50;98.40;;;;;;5031330;28;20236;-66
2021/03/07 23:09:05;;;;;;;2.77;1.43;;;1.50;98.40;;;;;;5023258;28;20221;-66
2021/03/07 23:11:32;;;;;;;3.13;1.50;;;1.60;98.40;;;;;;5030565;28;20194;-66
2021/03/07 23:13:59;;;;;;;2.43;1.40;;;1.70;98.40;;;;;;5027527;28;20243;-67
2021/03/07 23:16:26;;;;;;;3.57;1.63;;;1.70;98.40;;;;;;5024621;28;20670;-67
2021/03/07 23:18:52;;;;;;;3.47;1.67;;;1.80;98.40;;;;;;5029368;28;20210;-67
2021/03/07 23:21:20;;;;;;;7.90;2.57;;;1.80;98.40;;;;;;5025097;28;20194;-67
2021/03/07 23:23:48;;;;;;;10.60;3.10;;;1.90;98.70;;;;;;5027882;28;20206;-67
2021/03/07 23:26:15;;;;;;;11.40;3.17;;;1.80;99.40;;;;;;5028629;28;20198;-67
2021/03/07 23:28:41;;;;;;;8.57;3.10;;;1.80;99.90;;;;;;5028071;28;20241;-67
2021/03/07 23:31:09;;;;;;;8.43;3.17;;;1.70;99.90;;;;;;5062604;28;20289;-68
2021/03/07 23:33:36;;;;;;;8.40;2.70;;;1.60;99.90;;;;;;5029687;28;20293;-67
2021/03/07 23:36:03;;;;;;;7.10;2.60;;;1.40;99.90;;;;;;5031031;28;20194;-68
2021/03/07 23:38:30;;;;;;;7.00;2.70;;;1.30;99.90;;;;;;5048724;28;20230;-67
2021/03/07 23:40:58;;;;;;;6.80;2.70;;;1.20;99.90;;;;;;5028691;28;20745;-67
2021/03/07 23:43:25;;;;;;;5.37;2.30;;;1.20;99.90;;;;;;5025841;28;20277;-67
2021/03/07 23:45:52;;;;;;;4.63;2.30;;;1.20;99.90;;;;;;5029100;28;20195;-67
2021/03/07 23:48:19;;;;;;;5.73;2.00;;;1.20;99.90;;;;;;5026075;28;20658;-67
2021/03/07 23:50:49;;;;;;;2.23;1.40;;;1.20;99.90;;;;;;5029910;28;20198;-67
2021/03/07 23:53:16;;;;;;;4.27;1.73;;;1.30;99.90;;;;;;5028713;28;20202;-68
2021/03/07 23:55:43;;;;;;;2.00;1.20;;;1.30;99.90;;;;;;5028774;28;20256;-67
2021/03/07 23:58:11;;;;;;;2.67;1.30;;;1.30;99.90;;;;;;5028939;28;20268;-68
